YIF weather

St Augustin Airport
St-Augustin, Quebec, Canada

Public forecast

Using degrees Celsius for public forecast. Weather courtesy of forecast.io.

METAR (pilot weather report)

Closest report is Lourdes de Blanc Sablon Airport, 57.0 nm (105.5 km) ENE. Retrieved 2019/07/17 11:29 UTC (7 minutes ago):

CYBX 171129Z 22004KT 1/2SM -DZ FG VV002 12/12 A2985 RMK FG8 SLP111

TAF (pilot weather forecast)

Closest forecast is Lourdes de Blanc Sablon Airport, 57.0 nm (105.5 km) ENE. Retrieved 2019/07/17 08:00 UTC (4 hours ago):

TAF CYBX 170738Z 1708/1720 VRB03KT 1/4SM -DZ FG VV001 TEMPO 1708/1716 1SM BR OVC003 FM171600 19008KT P6SM FEW012 SCT140 RMK NXT FCST BY 171400Z